sensor_id;sensor_type;location;lat;lon;timestamp;pressure;altitude;pressure_sealevel;temperature
10598;BMP180;5346;48.766;8.674;2024-01-15T00:01:09;92811.00;;;-4.30
10598;BMP180;5346;48.766;8.674;2024-01-15T00:03:38;92815.00;;;-4.30
10598;BMP180;5346;48.766;8.674;2024-01-15T00:06:16;92805.00;;;-4.50
10598;BMP180;5346;48.766;8.674;2024-01-15T00:08:43;92814.00;;;-4.40
10598;BMP180;5346;48.766;8.674;2024-01-15T00:11:18;92813.00;;;-4.40
10598;BMP180;5346;48.766;8.674;2024-01-15T00:13:52;92812.00;;;-4.30
10598;BMP180;5346;48.766;8.674;2024-01-15T00:16:19;92806.00;;;-4.30
10598;BMP180;5346;48.766;8.674;2024-01-15T00:18:48;92802.00;;;-4.30
10598;BMP180;5346;48.766;8.674;2024-01-15T00:21:23;92797.00;;;-4.30
10598;BMP180;5346;48.766;8.674;2024-01-15T00:23:57;92797.00;;;-4.50
10598;BMP180;5346;48.766;8.674;2024-01-15T00:26:34;92798.00;;;-4.30
10598;BMP180;5346;48.766;8.674;2024-01-15T00:29:08;92800.00;;;-4.40
10598;BMP180;5346;48.766;8.674;2024-01-15T00:31:36;92791.00;;;-4.30
10598;BMP180;5346;48.766;8.674;2024-01-15T00:34:11;92786.00;;;-4.40
10598;BMP180;5346;48.766;8.674;2024-01-15T00:36:45;92791.00;;;-4.50
10598;BMP180;5346;48.766;8.674;2024-01-15T00:39:25;92786.00;;;-4.30
10598;BMP180;5346;48.766;8.674;2024-01-15T00:41:54;92798.00;;;-4.40
10598;BMP180;5346;48.766;8.674;2024-01-15T00:44:27;92796.00;;;-4.20
10598;BMP180;5346;48.766;8.674;2024-01-15T00:46:55;92791.00;;;-4.30
10598;BMP180;5346;48.766;8.674;2024-01-15T00:49:31;92788.00;;;-4.10
10598;BMP180;5346;48.766;8.674;2024-01-15T00:52:05;92790.00;;;-4.30
10598;BMP180;5346;48.766;8.674;2024-01-15T00:54:36;92802.00;;;-4.20
10598;BMP180;5346;48.766;8.674;2024-01-15T00:57:10;92795.00;;;-4.10
10598;BMP180;5346;48.766;8.674;2024-01-15T00:59:37;92801.00;;;-4.10
10598;BMP180;5346;48.766;8.674;2024-01-15T01:02:05;92808.00;;;-4.10
10598;BMP180;5346;48.766;8.674;2024-01-15T01:04:39;92807.00;;;-4.20
10598;BMP180;5346;48.766;8.674;2024-01-15T01:07:08;92800.00;;;-4.30
10598;BMP180;5346;48.766;8.674;2024-01-15T01:09:41;92803.00;;;-4.10
10598;BMP180;5346;48.766;8.674;2024-01-15T01:12:16;92803.00;;;-3.80
10598;BMP180;5346;48.766;8.674;2024-01-15T01:14:53;92798.00;;;-3.90
10598;BMP180;5346;48.766;8.674;2024-01-15T01:17:26;92798.00;;;-3.90
10598;BMP180;5346;48.766;8.674;2024-01-15T01:20:01;92787.00;;;-4.20
10598;BMP180;5346;48.766;8.674;2024-01-15T01:22:32;92802.00;;;-4.10
10598;BMP180;5346;48.766;8.674;2024-01-15T01:25:06;92785.00;;;-4.00
10598;BMP180;5346;48.766;8.674;2024-01-15T01:27:34;92786.00;;;-3.90
10598;BMP180;5346;48.766;8.674;2024-01-15T01:30:02;92790.00;;;-4.00
10598;BMP180;5346;48.766;8.674;2024-01-15T01:32:37;92790.00;;;-4.00
10598;BMP180;5346;48.766;8.674;2024-01-15T01:35:19;92784.00;;;-4.10
10598;BMP180;5346;48.766;8.674;2024-01-15T01:37:59;92783.00;;;-4.00
10598;BMP180;5346;48.766;8.674;2024-01-15T01:40:33;92790.00;;;-4.10
10598;BMP180;5346;48.766;8.674;2024-01-15T01:43:04;92779.00;;;-4.10
10598;BMP180;5346;48.766;8.674;2024-01-15T01:45:38;92778.00;;;-4.00
10598;BMP180;5346;48.766;8.674;2024-01-15T01:48:13;92782.00;;;-4.20
10598;BMP180;5346;48.766;8.674;2024-01-15T01:50:48;92779.00;;;-4.00
10598;BMP180;5346;48.766;8.674;2024-01-15T01:53:16;92774.00;;;-4.10
10598;BMP180;5346;48.766;8.674;2024-01-15T01:55:44;92775.00;;;-4.10
10598;BMP180;5346;48.766;8.674;2024-01-15T01:58:21;92780.00;;;-4.10
10598;BMP180;5346;48.766;8.674;2024-01-15T02:00:55;92746.00;;;-4.30
10598;BMP180;5346;48.766;8.674;2024-01-15T02:03:23;92788.00;;;-4.20
10598;BMP180;5346;48.766;8.674;2024-01-15T02:06:00;92776.00;;;-4.20
10598;BMP180;5346;48.766;8.674;2024-01-15T02:08:28;92792.00;;;-4.30
10598;BMP180;5346;48.766;8.674;2024-01-15T02:11:03;92768.00;;;-4.10
10598;BMP180;5346;48.766;8.674;2024-01-15T02:13:31;92772.00;;;-4.20
10598;BMP180;5346;48.766;8.674;2024-01-15T02:16:07;92769.00;;;-4.00
10598;BMP180;5346;48.766;8.674;2024-01-15T02:18:46;92778.00;;;-4.10
10598;BMP180;5346;48.766;8.674;2024-01-15T02:21:20;92768.00;;;-4.10
10598;BMP180;5346;48.766;8.674;2024-01-15T02:23:48;92759.00;;;-4.10
10598;BMP180;5346;48.766;8.674;2024-01-15T02:26:23;92777.00;;;-4.10
10598;BMP180;5346;48.766;8.674;2024-01-15T02:28:51;92773.00;;;-3.90
10598;BMP180;5346;48.766;8.674;2024-01-15T02:31:25;92761.00;;;-3.90
10598;BMP180;5346;48.766;8.674;2024-01-15T02:33:54;92774.00;;;-4.00
10598;BMP180;5346;48.766;8.674;2024-01-15T02:36:37;92774.00;;;-4.10
10598;BMP180;5346;48.766;8.674;2024-01-15T02:39:11;92774.00;;;-4.10
10598;BMP180;5346;48.766;8.674;2024-01-15T02:41:46;92772.00;;;-3.90
10598;BMP180;5346;48.766;8.674;2024-01-15T02:44:14;92772.00;;;-3.80
10598;BMP180;5346;48.766;8.674;2024-01-15T02:46:49;92765.00;;;-3.90
10598;BMP180;5346;48.766;8.674;2024-01-15T02:49:23;92770.00;;;-3.80
10598;BMP180;5346;48.766;8.674;2024-01-15T02:51:58;92769.00;;;-3.80
10598;BMP180;5346;48.766;8.674;2024-01-15T02:54:33;92760.00;;;-3.80
10598;BMP180;5346;48.766;8.674;2024-01-15T02:57:01;92761.00;;;-3.80
10598;BMP180;5346;48.766;8.674;2024-01-15T02:59:35;92765.00;;;-3.80
10598;BMP180;5346;48.766;8.674;2024-01-15T03:02:03;92757.00;;;-4.00
10598;BMP180;5346;48.766;8.674;2024-01-15T03:04:30;92777.00;;;-3.80
10598;BMP180;5346;48.766;8.674;2024-01-15T03:07:04;92779.00;;;-3.70
10598;BMP180;5346;48.766;8.674;2024-01-15T03:09:39;92774.00;;;-3.70
10598;BMP180;5346;48.766;8.674;2024-01-15T03:12:16;92783.00;;;-3.60
10598;BMP180;5346;48.766;8.674;2024-01-15T03:14:45;92774.00;;;-3.60
10598;BMP180;5346;48.766;8.674;2024-01-15T03:17:21;92771.00;;;-3.60
10598;BMP180;5346;48.766;8.674;2024-01-15T03:19:55;92770.00;;;-3.50
10598;BMP180;5346;48.766;8.674;2024-01-15T03:22:23;92764.00;;;-3.50
10598;BMP180;5346;48.766;8.674;2024-01-15T03:25:00;92754.00;;;-3.50
10598;BMP180;5346;48.766;8.674;2024-01-15T03:27:28;92767.00;;;-3.60
10598;BMP180;5346;48.766;8.674;2024-01-15T03:30:03;92767.00;;;-3.50
10598;BMP180;5346;48.766;8.674;2024-01-15T03:32:30;92769.00;;;-3.50
10598;BMP180;5346;48.766;8.674;2024-01-15T03:35:05;92765.00;;;-3.60
10598;BMP180;5346;48.766;8.674;2024-01-15T03:37:39;92760.00;;;-3.50
10598;BMP180;5346;48.766;8.674;2024-01-15T03:40:13;92768.00;;;-3.50
10598;BMP180;5346;48.766;8.674;2024-01-15T03:42:43;92753.00;;;-3.40
10598;BMP180;5346;48.766;8.674;2024-01-15T03:45:17;92758.00;;;-3.40
10598;BMP180;5346;48.766;8.674;2024-01-15T03:47:45;92758.00;;;-3.60
10598;BMP180;5346;48.766;8.674;2024-01-15T03:50:14;92752.00;;;-3.40
10598;BMP180;5346;48.766;8.674;2024-01-15T03:52:48;92754.00;;;-3.50
10598;BMP180;5346;48.766;8.674;2024-01-15T03:55:22;92754.00;;;-3.50
10598;BMP180;5346;48.766;8.674;2024-01-15T03:57:50;92742.00;;;-3.50
10598;BMP180;5346;48.766;8.674;2024-01-15T04:00:23;92739.00;;;-3.40
10598;BMP180;5346;48.766;8.674;2024-01-15T04:02:51;92730.00;;;-3.50
10598;BMP180;5346;48.766;8.674;2024-01-15T04:05:25;92734.00;;;-3.40
10598;BMP180;5346;48.766;8.674;2024-01-15T04:07:55;92736.00;;;-3.30
10598;BMP180;5346;48.766;8.674;2024-01-15T04:10:29;92733.00;;;-3.40
10598;BMP180;5346;48.766;8.674;2024-01-15T04:12:57;92739.00;;;-3.60
10598;BMP180;5346;48.766;8.674;2024-01-15T04:15:33;92737.00;;;-3.30
10598;BMP180;5346;48.766;8.674;2024-01-15T04:18:08;92722.00;;;-3.40
10598;BMP180;5346;48.766;8.674;2024-01-15T04:20:36;92728.00;;;-3.50
10598;BMP180;5346;48.766;8.674;2024-01-15T04:23:09;92730.00;;;-3.70
10598;BMP180;5346;48.766;8.674;2024-01-15T04:25:45;92720.00;;;-3.50
10598;BMP180;5346;48.766;8.674;2024-01-15T04:28:19;92726.00;;;-3.50
10598;BMP180;5346;48.766;8.674;2024-01-15T04:30:47;92726.00;;;-3.50
10598;BMP180;5346;48.766;8.674;2024-01-15T04:33:22;92721.00;;;-3.50
10598;BMP180;5346;48.766;8.674;2024-01-15T04:36:06;92720.00;;;-3.50
10598;BMP180;5346;48.766;8.674;2024-01-15T04:38:40;92705.00;;;-3.60
10598;BMP180;5346;48.766;8.674;2024-01-15T04:41:21;92728.00;;;-3.40
10598;BMP180;5346;48.766;8.674;2024-01-15T04:43:49;92724.00;;;-3.50
10598;BMP180;5346;48.766;8.674;2024-01-15T04:46:23;92725.00;;;-3.60
10598;BMP180;5346;48.766;8.674;2024-01-15T04:48:51;92723.00;;;-3.60
10598;BMP180;5346;48.766;8.674;2024-01-15T04:51:27;92718.00;;;-3.40
10598;BMP180;5346;48.766;8.674;2024-01-15T04:54:02;92721.00;;;-3.50
10598;BMP180;5346;48.766;8.674;2024-01-15T04:56:35;92719.00;;;-3.50
10598;BMP180;5346;48.766;8.674;2024-01-15T04:59:10;92721.00;;;-3.50
10598;BMP180;5346;48.766;8.674;2024-01-15T05:01:45;92721.00;;;-3.30
10598;BMP180;5346;48.766;8.674;2024-01-15T05:04:21;92715.00;;;-3.40
10598;BMP180;5346;48.766;8.674;2024-01-15T05:06:48;92724.00;;;-3.30
10598;BMP180;5346;48.766;8.674;2024-01-15T05:09:23;92724.00;;;-3.40
10598;BMP180;5346;48.766;8.674;2024-01-15T05:11:59;92714.00;;;-3.40
10598;BMP180;5346;48.766;8.674;2024-01-15T05:14:27;92715.00;;;-3.40
10598;BMP180;5346;48.766;8.674;2024-01-15T05:17:02;92718.00;;;-3.40
10598;BMP180;5346;48.766;8.674;2024-01-15T05:19:38;92713.00;;;-3.50
10598;BMP180;5346;48.766;8.674;2024-01-15T05:22:13;92699.00;;;-3.30
10598;BMP180;5346;48.766;8.674;2024-01-15T05:24:42;92698.00;;;-3.50
10598;BMP180;5346;48.766;8.674;2024-01-15T05:27:16;92697.00;;;-3.40
10598;BMP180;5346;48.766;8.674;2024-01-15T05:29:50;92703.00;;;-3.30
10598;BMP180;5346;48.766;8.674;2024-01-15T05:32:21;92698.00;;;-3.30
10598;BMP180;5346;48.766;8.674;2024-01-15T05:35:02;92696.00;;;-3.20
10598;BMP180;5346;48.766;8.674;2024-01-15T05:37:45;92694.00;;;-3.30
10598;BMP180;5346;48.766;8.674;2024-01-15T05:40:19;92694.00;;;-3.40
10598;BMP180;5346;48.766;8.674;2024-01-15T05:42:46;92690.00;;;-3.30
10598;BMP180;5346;48.766;8.674;2024-01-15T05:45:20;92701.00;;;-3.20
10598;BMP180;5346;48.766;8.674;2024-01-15T05:47:56;92702.00;;;-3.20
10598;BMP180;5346;48.766;8.674;2024-01-15T05:50:30;92690.00;;;-3.20
10598;BMP180;5346;48.766;8.674;2024-01-15T05:53:00;92688.00;;;-3.20
10598;BMP180;5346;48.766;8.674;2024-01-15T05:55:27;92707.00;;;-3.30
10598;BMP180;5346;48.766;8.674;2024-01-15T05:58:07;92692.00;;;-3.20
10598;BMP180;5346;48.766;8.674;2024-01-15T06:00:34;92694.00;;;-3.10
10598;BMP180;5346;48.766;8.674;2024-01-15T06:03:10;92674.00;;;-3.20
10598;BMP180;5346;48.766;8.674;2024-01-15T06:05:37;92682.00;;;-3.10
10598;BMP180;5346;48.766;8.674;2024-01-15T06:08:14;92683.00;;;-3.20
10598;BMP180;5346;48.766;8.674;2024-01-15T06:10:42;92687.00;;;-3.20
10598;BMP180;5346;48.766;8.674;2024-01-15T06:13:16;92678.00;;;-3.20
10598;BMP180;5346;48.766;8.674;2024-01-15T06:15:45;92669.00;;;-3.20
10598;BMP180;5346;48.766;8.674;2024-01-15T06:18:19;92683.00;;;-3.00
10598;BMP180;5346;48.766;8.674;2024-01-15T06:20:47;92678.00;;;-3.10
10598;BMP180;5346;48.766;8.674;2024-01-15T06:23:22;92678.00;;;-3.10
10598;BMP180;5346;48.766;8.674;2024-01-15T06:25:56;92675.00;;;-3.10
10598;BMP180;5346;48.766;8.674;2024-01-15T06:28:32;92684.00;;;-3.10
10598;BMP180;5346;48.766;8.674;2024-01-15T06:31:00;92671.00;;;-3.10
10598;BMP180;5346;48.766;8.674;2024-01-15T06:33:29;92668.00;;;-3.20
10598;BMP180;5346;48.766;8.674;2024-01-15T06:36:03;92666.00;;;-3.00
10598;BMP180;5346;48.766;8.674;2024-01-15T06:38:51;92664.00;;;-3.00
10598;BMP180;5346;48.766;8.674;2024-01-15T06:41:27;92654.00;;;-3.20
10598;BMP180;5346;48.766;8.674;2024-01-15T06:43:55;92666.00;;;-3.40
10598;BMP180;5346;48.766;8.674;2024-01-15T06:46:30;92673.00;;;-3.60
10598;BMP180;5346;48.766;8.674;2024-01-15T06:48:57;92671.00;;;-3.60
10598;BMP180;5346;48.766;8.674;2024-01-15T06:51:32;92658.00;;;-3.60
10598;BMP180;5346;48.766;8.674;2024-01-15T06:54:06;92652.00;;;-3.40
10598;BMP180;5346;48.766;8.674;2024-01-15T06:56:40;92655.00;;;-3.30
10598;BMP180;5346;48.766;8.674;2024-01-15T06:59:08;92655.00;;;-3.20
10598;BMP180;5346;48.766;8.674;2024-01-15T07:01:46;92657.00;;;-3.30
10598;BMP180;5346;48.766;8.674;2024-01-15T07:04:14;92650.00;;;-3.20
10598;BMP180;5346;48.766;8.674;2024-01-15T07:06:50;92656.00;;;-3.20
10598;BMP180;5346;48.766;8.674;2024-01-15T07:09:18;92642.00;;;-3.40
10598;BMP180;5346;48.766;8.674;2024-01-15T07:11:55;92647.00;;;-3.40
10598;BMP180;5346;48.766;8.674;2024-01-15T07:14:26;92651.00;;;-3.30
10598;BMP180;5346;48.766;8.674;2024-01-15T07:17:00;92654.00;;;-3.20
10598;BMP180;5346;48.766;8.674;2024-01-15T07:19:28;92651.00;;;-3.30
10598;BMP180;5346;48.766;8.674;2024-01-15T07:22:03;92652.00;;;-3.20
10598;BMP180;5346;48.766;8.674;2024-01-15T07:24:37;92665.00;;;-3.30
10598;BMP180;5346;48.766;8.674;2024-01-15T07:27:11;92646.00;;;-3.20
10598;BMP180;5346;48.766;8.674;2024-01-15T07:29:40;92657.00;;;-3.10
10598;BMP180;5346;48.766;8.674;2024-01-15T07:32:15;92658.00;;;-3.20
10598;BMP180;5346;48.766;8.674;2024-01-15T07:34:49;92655.00;;;-3.10
10598;BMP180;5346;48.766;8.674;2024-01-15T07:37:30;92663.00;;;-3.10
10598;BMP180;5346;48.766;8.674;2024-01-15T07:40:07;92660.00;;;-3.00
10598;BMP180;5346;48.766;8.674;2024-01-15T07:42:42;92659.00;;;-3.10
10598;BMP180;5346;48.766;8.674;2024-01-15T07:45:17;92656.00;;;-2.90
10598;BMP180;5346;48.766;8.674;2024-01-15T07:47:47;92662.00;;;-2.90
10598;BMP180;5346;48.766;8.674;2024-01-15T07:50:22;92656.00;;;-2.90
10598;BMP180;5346;48.766;8.674;2024-01-15T07:52:57;92655.00;;;-2.70
10598;BMP180;5346;48.766;8.674;2024-01-15T07:55:31;92664.00;;;-2.90
10598;BMP180;5346;48.766;8.674;2024-01-15T07:58:06;92661.00;;;-2.70
10598;BMP180;5346;48.766;8.674;2024-01-15T08:00:43;92645.00;;;-2.70
10598;BMP180;5346;48.766;8.674;2024-01-15T08:03:12;92664.00;;;-2.80
10598;BMP180;5346;48.766;8.674;2024-01-15T08:05:47;92658.00;;;-2.60
10598;BMP180;5346;48.766;8.674;2024-01-15T08:08:18;92669.00;;;-2.60
10598;BMP180;5346;48.766;8.674;2024-01-15T08:10:53;92673.00;;;-2.70
10598;BMP180;5346;48.766;8.674;2024-01-15T08:13:30;92659.00;;;-2.60
10598;BMP180;5346;48.766;8.674;2024-01-15T08:16:05;92670.00;;;-2.60
10598;BMP180;5346;48.766;8.674;2024-01-15T08:18:33;92666.00;;;-2.60
10598;BMP180;5346;48.766;8.674;2024-01-15T08:21:07;92656.00;;;-2.60
10598;BMP180;5346;48.766;8.674;2024-01-15T08:23:35;92662.00;;;-2.50
10598;BMP180;5346;48.766;8.674;2024-01-15T08:26:10;92664.00;;;-2.60
10598;BMP180;5346;48.766;8.674;2024-01-15T08:28:44;92664.00;;;-2.60
10598;BMP180;5346;48.766;8.674;2024-01-15T08:31:20;92664.00;;;-2.50
10598;BMP180;5346;48.766;8.674;2024-01-15T08:33:55;92666.00;;;-2.60
10598;BMP180;5346;48.766;8.674;2024-01-15T08:36:30;92664.00;;;-2.50
10598;BMP180;5346;48.766;8.674;2024-01-15T08:39:12;92658.00;;;-2.50
10598;BMP180;5346;48.766;8.674;2024-01-15T08:41:46;92657.00;;;-2.50
10598;BMP180;5346;48.766;8.674;2024-01-15T08:44:20;92657.00;;;-2.50
10598;BMP180;5346;48.766;8.674;2024-01-15T08:46:56;92657.00;;;-2.40
10598;BMP180;5346;48.766;8.674;2024-01-15T08:49:24;92650.00;;;-2.40
10598;BMP180;5346;48.766;8.674;2024-01-15T08:51:58;92647.00;;;-2.50
10598;BMP180;5346;48.766;8.674;2024-01-15T08:54:26;92650.00;;;-2.50
10598;BMP180;5346;48.766;8.674;2024-01-15T08:56:59;92654.00;;;-2.60
10598;BMP180;5346;48.766;8.674;2024-01-15T08:59:36;92665.00;;;-2.40
10598;BMP180;5346;48.766;8.674;2024-01-15T09:02:09;92652.00;;;-2.30
10598;BMP180;5346;48.766;8.674;2024-01-15T09:04:43;92650.00;;;-2.30
10598;BMP180;5346;48.766;8.674;2024-01-15T09:07:17;92651.00;;;-2.30
10598;BMP180;5346;48.766;8.674;2024-01-15T09:09:53;92647.00;;;-2.20
10598;BMP180;5346;48.766;8.674;2024-01-15T09:12:21;92632.00;;;-2.10
10598;BMP180;5346;48.766;8.674;2024-01-15T09:14:56;92630.00;;;-2.00
10598;BMP180;5346;48.766;8.674;2024-01-15T09:17:23;92617.00;;;-1.90
10598;BMP180;5346;48.766;8.674;2024-01-15T09:19:57;92619.00;;;-1.70
10598;BMP180;5346;48.766;8.674;2024-01-15T09:22:25;92620.00;;;-1.80
10598;BMP180;5346;48.766;8.674;2024-01-15T09:25:00;92619.00;;;-1.70
10598;BMP180;5346;48.766;8.674;2024-01-15T09:27:28;92623.00;;;-1.60
10598;BMP180;5346;48.766;8.674;2024-01-15T09:30:04;92625.00;;;-1.70
10598;BMP180;5346;48.766;8.674;2024-01-15T09:32:32;92622.00;;;-1.70
10598;BMP180;5346;48.766;8.674;2024-01-15T09:35:13;92628.00;;;-1.70
10598;BMP180;5346;48.766;8.674;2024-01-15T09:37:54;92620.00;;;-1.70
10598;BMP180;5346;48.766;8.674;2024-01-15T09:40:31;92633.00;;;-1.60
10598;BMP180;5346;48.766;8.674;2024-01-15T09:43:02;92620.00;;;-1.80
10598;BMP180;5346;48.766;8.674;2024-01-15T09:45:37;92621.00;;;-1.60
10598;BMP180;5346;48.766;8.674;2024-01-15T09:48:07;92625.00;;;-1.70
10598;BMP180;5346;48.766;8.674;2024-01-15T09:50:42;92633.00;;;-1.70
10598;BMP180;5346;48.766;8.674;2024-01-15T09:53:10;92630.00;;;-1.90
10598;BMP180;5346;48.766;8.674;2024-01-15T09:55:49;92628.00;;;-1.70
10598;BMP180;5346;48.766;8.674;2024-01-15T09:58:17;92635.00;;;-1.60
10598;BMP180;5346;48.766;8.674;2024-01-15T10:00:59;92630.00;;;-1.80
10598;BMP180;5346;48.766;8.674;2024-01-15T10:03:38;92627.00;;;-1.90
10598;BMP180;5346;48.766;8.674;2024-01-15T10:06:16;92610.00;;;-1.80
10598;BMP180;5346;48.766;8.674;2024-01-15T10:08:50;92624.00;;;-1.80
10598;BMP180;5346;48.766;8.674;2024-01-15T10:11:26;92625.00;;;-1.80
10598;BMP180;5346;48.766;8.674;2024-01-15T10:13:54;92619.00;;;-2.10
10598;BMP180;5346;48.766;8.674;2024-01-15T10:16:31;92618.00;;;-2.00
10598;BMP180;5346;48.766;8.674;2024-01-15T10:19:07;92620.00;;;-1.90
10598;BMP180;5346;48.766;8.674;2024-01-15T10:21:41;92615.00;;;-2.00
10598;BMP180;5346;48.766;8.674;2024-01-15T10:24:09;92613.00;;;-1.90
10598;BMP180;5346;48.766;8.674;2024-01-15T10:26:43;92609.00;;;-2.00
10598;BMP180;5346;48.766;8.674;2024-01-15T10:29:20;92605.00;;;-2.00
10598;BMP180;5346;48.766;8.674;2024-01-15T10:31:54;92610.00;;;-1.90
10598;BMP180;5346;48.766;8.674;2024-01-15T10:34:30;92609.00;;;-1.90
10598;BMP180;5346;48.766;8.674;2024-01-15T10:37:04;92610.00;;;-1.90
10598;BMP180;5346;48.766;8.674;2024-01-15T10:39:39;92605.00;;;-2.20
10598;BMP180;5346;48.766;8.674;2024-01-15T10:42:07;92594.00;;;-2.00
10598;BMP180;5346;48.766;8.674;2024-01-15T10:44:42;92590.00;;;-2.10
10598;BMP180;5346;48.766;8.674;2024-01-15T10:47:24;92588.00;;;-2.10
10598;BMP180;5346;48.766;8.674;2024-01-15T10:49:58;92584.00;;;-2.20
10598;BMP180;5346;48.766;8.674;2024-01-15T10:52:28;92588.00;;;-2.30
10598;BMP180;5346;48.766;8.674;2024-01-15T10:54:58;92576.00;;;-2.20
10598;BMP180;5346;48.766;8.674;2024-01-15T10:57:40;92586.00;;;-2.30
10598;BMP180;5346;48.766;8.674;2024-01-15T11:00:08;92576.00;;;-2.30
10598;BMP180;5346;48.766;8.674;2024-01-15T11:02:43;92581.00;;;-2.10
10598;BMP180;5346;48.766;8.674;2024-01-15T11:05:20;92581.00;;;-2.10
10598;BMP180;5346;48.766;8.674;2024-01-15T11:07:50;92573.00;;;-2.10
10598;BMP180;5346;48.766;8.674;2024-01-15T11:10:47;92579.00;;;-2.00
10598;BMP180;5346;48.766;8.674;2024-01-15T11:16:02;92577.00;;;-2.10
10598;BMP180;5346;48.766;8.674;2024-01-15T11:21:25;92571.00;;;-2.10
10598;BMP180;5346;48.766;8.674;2024-01-15T11:24:02;92578.00;;;-2.10
10598;BMP180;5346;48.766;8.674;2024-01-15T11:26:46;92584.00;;;-2.10
10598;BMP180;5346;48.766;8.674;2024-01-15T11:29:33;92578.00;;;-2.30
10598;BMP180;5346;48.766;8.674;2024-01-15T11:32:09;92577.00;;;-2.00
10598;BMP180;5346;48.766;8.674;2024-01-15T11:34:54;92571.00;;;-2.00
10598;BMP180;5346;48.766;8.674;2024-01-15T11:37:57;92565.00;;;-1.90
10598;BMP180;5346;48.766;8.674;2024-01-15T11:40:40;92560.00;;;-2.10
10598;BMP180;5346;48.766;8.674;2024-01-15T11:43:10;92568.00;;;-1.90
10598;BMP180;5346;48.766;8.674;2024-01-15T11:45:51;92569.00;;;-1.90
10598;BMP180;5346;48.766;8.674;2024-01-15T11:48:41;92570.00;;;-1.80
10598;BMP180;5346;48.766;8.674;2024-01-15T11:51:12;92571.00;;;-1.80
10598;BMP180;5346;48.766;8.674;2024-01-15T11:53:49;92568.00;;;-1.90
10598;BMP180;5346;48.766;8.674;2024-01-15T11:56:27;92581.00;;;-1.80
10598;BMP180;5346;48.766;8.674;2024-01-15T11:58:55;92567.00;;;-1.90
10598;BMP180;5346;48.766;8.674;2024-01-15T12:01:34;92565.00;;;-1.70
10598;BMP180;5346;48.766;8.674;2024-01-15T12:04:02;92570.00;;;-1.80
10598;BMP180;5346;48.766;8.674;2024-01-15T12:06:32;92571.00;;;-1.60
10598;BMP180;5346;48.766;8.674;2024-01-15T12:09:08;92569.00;;;-1.80
10598;BMP180;5346;48.766;8.674;2024-01-15T12:11:38;92577.00;;;-1.90
10598;BMP180;5346;48.766;8.674;2024-01-15T12:14:17;92572.00;;;-1.60
10598;BMP180;5346;48.766;8.674;2024-01-15T12:16:45;92575.00;;;-1.70
10598;BMP180;5346;48.766;8.674;2024-01-15T12:19:19;92570.00;;;-1.40
10598;BMP180;5346;48.766;8.674;2024-01-15T12:21:47;92571.00;;;-1.80
10598;BMP180;5346;48.766;8.674;2024-01-15T12:24:21;92573.00;;;-1.80
10598;BMP180;5346;48.766;8.674;2024-01-15T12:26:49;92565.00;;;-1.70
10598;BMP180;5346;48.766;8.674;2024-01-15T12:29:23;92584.00;;;-1.90
10598;BMP180;5346;48.766;8.674;2024-01-15T12:31:52;92563.00;;;-1.80
10598;BMP180;5346;48.766;8.674;2024-01-15T12:34:31;92579.00;;;-1.70
10598;BMP180;5346;48.766;8.674;2024-01-15T12:37:12;92574.00;;;-1.60
10598;BMP180;5346;48.766;8.674;2024-01-15T12:39:47;92569.00;;;-1.70
10598;BMP180;5346;48.766;8.674;2024-01-15T12:42:22;92566.00;;;-1.60
10598;BMP180;5346;48.766;8.674;2024-01-15T12:44:52;92577.00;;;-1.60
10598;BMP180;5346;48.766;8.674;2024-01-15T12:47:30;92585.00;;;-1.90
10598;BMP180;5346;48.766;8.674;2024-01-15T12:49:59;92578.00;;;-1.70
10598;BMP180;5346;48.766;8.674;2024-01-15T12:52:45;92586.00;;;-1.70
10598;BMP180;5346;48.766;8.674;2024-01-15T12:55:14;92580.00;;;-1.70
10598;BMP180;5346;48.766;8.674;2024-01-15T12:57:49;92570.00;;;-1.80
10598;BMP180;5346;48.766;8.674;2024-01-15T13:00:26;92577.00;;;-1.70
10598;BMP180;5346;48.766;8.674;2024-01-15T13:02:54;92575.00;;;-1.80
10598;BMP180;5346;48.766;8.674;2024-01-15T13:05:24;92587.00;;;-1.80
10598;BMP180;5346;48.766;8.674;2024-01-15T13:08:02;92591.00;;;-1.80
10598;BMP180;5346;48.766;8.674;2024-01-15T13:10:37;92600.00;;;-2.10
10598;BMP180;5346;48.766;8.674;2024-01-15T13:13:06;92589.00;;;-2.20
10598;BMP180;5346;48.766;8.674;2024-01-15T13:15:40;92588.00;;;-2.20
10598;BMP180;5346;48.766;8.674;2024-01-15T13:18:15;92584.00;;;-1.90
10598;BMP180;5346;48.766;8.674;2024-01-15T13:20:50;92589.00;;;-2.30
10598;BMP180;5346;48.766;8.674;2024-01-15T13:23:21;92588.00;;;-1.90
10598;BMP180;5346;48.766;8.674;2024-01-15T13:25:49;92576.00;;;-1.70
10598;BMP180;5346;48.766;8.674;2024-01-15T13:28:24;92590.00;;;-1.90
10598;BMP180;5346;48.766;8.674;2024-01-15T13:30:52;92579.00;;;-2.30
10598;BMP180;5346;48.766;8.674;2024-01-15T13:33:27;92591.00;;;-1.90
10598;BMP180;5346;48.766;8.674;2024-01-15T13:36:03;92588.00;;;-2.00
10598;BMP180;5346;48.766;8.674;2024-01-15T13:38:38;92590.00;;;-2.20
10598;BMP180;5346;48.766;8.674;2024-01-15T13:41:12;92597.00;;;-2.00
10598;BMP180;5346;48.766;8.674;2024-01-15T13:43:49;92594.00;;;-2.20
10598;BMP180;5346;48.766;8.674;2024-01-15T13:46:25;92604.00;;;-2.00
10598;BMP180;5346;48.766;8.674;2024-01-15T13:49:03;92599.00;;;-2.20
10598;BMP180;5346;48.766;8.674;2024-01-15T13:51:35;92611.00;;;-2.40
10598;BMP180;5346;48.766;8.674;2024-01-15T13:54:04;92613.00;;;-2.30
10598;BMP180;5346;48.766;8.674;2024-01-15T13:56:40;92616.00;;;-2.50
10598;BMP180;5346;48.766;8.674;2024-01-15T13:59:15;92630.00;;;-2.40
10598;BMP180;5346;48.766;8.674;2024-01-15T14:01:43;92620.00;;;-2.50
10598;BMP180;5346;48.766;8.674;2024-01-15T14:04:19;92627.00;;;-2.50
10598;BMP180;5346;48.766;8.674;2024-01-15T14:06:47;92630.00;;;-2.70
10598;BMP180;5346;48.766;8.674;2024-01-15T14:09:21;92642.00;;;-2.50
10598;BMP180;5346;48.766;8.674;2024-01-15T14:11:55;92642.00;;;-2.60
10598;BMP180;5346;48.766;8.674;2024-01-15T14:14:30;92648.00;;;-2.60
10598;BMP180;5346;48.766;8.674;2024-01-15T14:16:59;92660.00;;;-2.90
10598;BMP180;5346;48.766;8.674;2024-01-15T14:19:27;92654.00;;;-2.70
10598;BMP180;5346;48.766;8.674;2024-01-15T14:22:02;92658.00;;;-2.70
10598;BMP180;5346;48.766;8.674;2024-01-15T14:24:31;92670.00;;;-2.60
10598;BMP180;5346;48.766;8.674;2024-01-15T14:27:06;92668.00;;;-2.70
10598;BMP180;5346;48.766;8.674;2024-01-15T14:29:42;92678.00;;;-2.70
10598;BMP180;5346;48.766;8.674;2024-01-15T14:32:16;92678.00;;;-2.70
10598;BMP180;5346;48.766;8.674;2024-01-15T14:34:53;92671.00;;;-2.90
10598;BMP180;5346;48.766;8.674;2024-01-15T14:37:29;92670.00;;;-3.00
10598;BMP180;5346;48.766;8.674;2024-01-15T14:40:07;92686.00;;;-2.90
10598;BMP180;5346;48.766;8.674;2024-01-15T14:42:39;92688.00;;;-2.80
10598;BMP180;5346;48.766;8.674;2024-01-15T14:45:13;92698.00;;;-2.80
10598;BMP180;5346;48.766;8.674;2024-01-15T14:47:42;92695.00;;;-2.80
10598;BMP180;5346;48.766;8.674;2024-01-15T14:50:17;92716.00;;;-2.80
10598;BMP180;5346;48.766;8.674;2024-01-15T14:52:52;92710.00;;;-3.00
10598;BMP180;5346;48.766;8.674;2024-01-15T14:55:23;92699.00;;;-3.10
10598;BMP180;5346;48.766;8.674;2024-01-15T14:57:58;92705.00;;;-3.10
10598;BMP180;5346;48.766;8.674;2024-01-15T15:00:26;92722.00;;;-3.10
10598;BMP180;5346;48.766;8.674;2024-01-15T15:03:00;92718.00;;;-3.20